createdAt,value
2023-10-18T00:03:11.383Z,74.5
2023-10-18T00:08:11.337Z,73.4
2023-10-18T00:13:21.470Z,72.7
2023-10-18T00:19:11.439Z,72.5
2023-10-18T00:24:21.419Z,71.8
2023-10-18T00:30:11.314Z,71.6
2023-10-18T00:35:11.328Z,70.8
2023-10-18T00:40:21.622Z,71.5
2023-10-18T00:46:11.417Z,71.4
2023-10-18T00:51:21.585Z,72.1
2023-10-18T00:56:21.661Z,72.1
2023-10-18T01:01:24.320Z,72.2
2023-10-18T01:06:29.768Z,71.8
2023-10-18T01:12:11.135Z,71.5
2023-10-18T01:17:11.317Z,71.9
2023-10-18T01:22:21.450Z,71.5
2023-10-18T01:27:21.450Z,71.5
2023-10-18T01:32:21.526Z,73
2023-10-18T01:38:11.135Z,72.7
2023-10-18T01:43:21.394Z,72.6
2023-10-18T01:48:21.440Z,74
2023-10-18T01:54:11.184Z,73.8
2023-10-18T02:04:22.288Z,74
2023-10-18T02:10:11.229Z,73.9
2023-10-18T02:15:21.428Z,73.9
2023-10-18T02:20:21.435Z,72.5
2023-10-18T02:26:11.235Z,72.2
2023-10-18T02:31:11.386Z,73.5
2023-10-18T02:36:11.306Z,72.3
2023-10-18T02:41:21.564Z,73.2
2023-10-18T02:46:21.683Z,73.2
2023-10-18T02:52:11.555Z,74
2023-10-18T02:57:21.561Z,73.8
2023-10-18T03:02:21.618Z,74.4
2023-10-18T03:08:11.128Z,75
2023-10-18T03:13:21.389Z,74.4
2023-10-18T03:18:21.626Z,74.2
2023-10-18T03:24:11.315Z,74.2
2023-10-18T03:29:21.580Z,74.2
2023-10-18T03:35:11.338Z,73.9
2023-10-18T03:40:21.583Z,74.1
2023-10-18T03:46:11.400Z,74.3
2023-10-18T03:51:21.374Z,75.1
2023-10-18T03:56:21.554Z,74.5
2023-10-18T04:01:21.630Z,74
2023-10-18T04:06:21.569Z,74.1
2023-10-18T04:12:12.280Z,73.8
2023-10-18T04:17:21.598Z,73.1
2023-10-18T04:23:11.315Z,71.9
2023-10-18T04:28:21.352Z,72
2023-10-18T04:33:21.456Z,71.4
2023-10-18T04:39:11.296Z,70.8
2023-10-18T04:44:11.319Z,70.3
2023-10-18T04:49:21.368Z,70.2
2023-10-18T04:54:21.576Z,70.8
2023-10-18T05:00:11.280Z,71
2023-10-18T05:05:21.562Z,71.2
2023-10-18T05:10:24.081Z,70.5
2023-10-18T05:15:21.599Z,69.7
2023-10-18T05:21:11.270Z,69.5
2023-10-18T05:26:30.844Z,72.2
2023-10-18T05:32:11.432Z,71.4
2023-10-18T05:37:11.300Z,71.6
2023-10-18T05:42:21.567Z,72.4
2023-10-18T05:47:21.553Z,70.9
2023-10-18T05:53:11.333Z,70.2
2023-10-18T05:58:21.662Z,70.8
2023-10-18T06:04:11.427Z,69.8
2023-10-18T06:09:21.356Z,70
2023-10-18T06:14:21.529Z,69.9
2023-10-18T06:25:11.538Z,70.1
2023-10-18T06:30:21.359Z,70.3
2023-10-18T06:36:11.052Z,70
2023-10-18T06:41:11.275Z,69.9
2023-10-18T06:46:11.366Z,69.6
2023-10-18T06:51:21.566Z,69.7
2023-10-18T06:56:21.571Z,69.7
2023-10-18T07:02:11.353Z,68.5
2023-10-18T07:07:11.321Z,68.7
2023-10-18T07:12:21.639Z,68
2023-10-18T07:18:11.227Z,67.5
2023-10-18T07:23:15.877Z,66.9
2023-10-18T07:28:21.365Z,66.5
2023-10-18T07:33:21.344Z,66.7
2023-10-18T07:39:11.247Z,64.6
2023-10-18T07:44:21.385Z,65
2023-10-18T07:50:11.093Z,64.7
2023-10-18T07:55:11.192Z,64
2023-10-18T08:00:11.112Z,62.9
2023-10-18T08:11:11.139Z,62.5
2023-10-18T08:16:21.432Z,61.9
2023-10-18T08:22:11.138Z,61.8
2023-10-18T08:27:11.214Z,62.1
2023-10-18T08:32:21.356Z,61.7
2023-10-18T08:42:30.798Z,61.5
2023-10-18T08:48:11.351Z,60.6
2023-10-18T08:53:12.761Z,61.5
2023-10-18T08:58:21.341Z,60.3
2023-10-18T09:03:21.995Z,59.5
2023-10-18T09:09:11.258Z,59.8
2023-10-18T09:14:21.621Z,59.2
2023-10-18T09:19:21.646Z,58.4
2023-10-18T09:25:11.277Z,58.8
2023-10-18T09:30:11.260Z,57.1
2023-10-18T09:35:11.270Z,55.6
2023-10-18T09:40:11.344Z,56.1
2023-10-18T09:45:21.333Z,55.6
2023-10-18T09:50:21.536Z,55.5
2023-10-18T09:56:11.250Z,55.3
2023-10-18T10:01:11.367Z,54.7
2023-10-18T10:06:11.261Z,55.1
2023-10-18T10:11:11.260Z,54.5
2023-10-18T10:16:21.854Z,52.2
2023-10-18T12:53:03.313Z,51.8
2023-10-18T12:58:38.811Z,48.8
2023-10-18T13:09:38.831Z,48.9
2023-10-18T13:14:39.547Z,47.7
2023-10-18T13:19:45.576Z,49.5
2023-10-18T13:24:45.642Z,49
2023-10-18T13:40:38.922Z,49.2
2023-10-18T13:45:45.572Z,49.3
2023-10-18T13:56:38.613Z,48.7
2023-10-18T14:01:39.373Z,49.2
2023-10-18T14:06:54.311Z,50.2
2023-10-18T14:12:38.820Z,50
2023-10-18T14:17:45.662Z,50.6
2023-10-18T14:22:50.782Z,51.3
2023-10-18T14:28:38.661Z,52.5
2023-10-18T14:33:41.933Z,53.1
2023-10-18T14:38:38.833Z,52.8
2023-10-18T14:43:38.867Z,53.3
2023-10-18T14:48:45.526Z,53.3
2023-10-18T14:54:38.830Z,54.1
2023-10-18T14:59:39.220Z,54.5
2023-10-18T15:04:45.200Z,54.6
2023-10-18T15:09:45.231Z,54.6
2023-10-18T15:14:45.325Z,55.2
2023-10-18T15:19:45.538Z,56.1
2023-10-18T15:25:38.656Z,56.7
2023-10-18T15:30:39.469Z,56.4
2023-10-18T15:35:45.439Z,56.9
2023-10-18T15:40:45.398Z,57.3
2023-10-18T15:46:38.714Z,57.5
2023-10-18T15:51:38.939Z,57.9
2023-10-18T15:56:39.259Z,57.8
2023-10-18T16:01:55.856Z,58
2023-10-18T16:06:45.686Z,58.4
2023-10-18T16:12:38.827Z,58.3
2023-10-18T16:17:45.549Z,57.9
2023-10-18T16:22:45.522Z,57.2
2023-10-18T16:28:38.988Z,57.7
2023-10-18T16:33:45.421Z,57.5
2023-10-18T16:39:38.601Z,57.9
2023-10-18T16:44:45.424Z,58.6
2023-10-18T16:50:02.438Z,57.4
2023-10-18T16:55:38.724Z,57
2023-10-18T17:00:45.432Z,57.5
2023-10-18T17:05:45.478Z,57.9
2023-10-18T17:10:45.566Z,57.8
2023-10-18T17:16:38.627Z,57.9
2023-10-18T17:21:38.738Z,57.8
2023-10-18T17:26:45.437Z,57.6
2023-10-18T17:31:45.506Z,58
2023-10-18T17:37:38.627Z,58.3
2023-10-18T17:42:38.660Z,58.7
2023-10-18T17:47:45.542Z,59.3
2023-10-18T17:52:45.552Z,60.1
2023-10-18T17:58:39.051Z,60.3
2023-10-18T18:03:43.536Z,60.7
2023-10-18T18:08:45.433Z,61.2
2023-10-18T18:14:38.685Z,61
2023-10-18T18:19:38.835Z,61.6
2023-10-18T18:24:45.511Z,61.6
2023-10-18T18:29:45.667Z,61.6
2023-10-18T18:40:45.409Z,61.3
2023-10-18T18:46:39.710Z,61.2
2023-10-18T18:51:45.404Z,60.2
2023-10-18T18:57:38.627Z,60.1
2023-10-18T19:02:38.890Z,60.8
2023-10-18T19:07:38.846Z,60.6
2023-10-18T19:12:38.864Z,60.4
2023-10-18T19:17:45.585Z,61.2
2023-10-18T19:23:39.231Z,60.9
2023-10-18T19:28:45.405Z,61.4
2023-10-18T19:34:38.856Z,61.3
2023-10-18T19:39:38.882Z,61.5
2023-10-18T19:44:45.543Z,61.3
2023-10-18T19:50:38.942Z,62.1
2023-10-18T19:55:38.855Z,61.6
2023-10-18T20:00:39.509Z,61.9
2023-10-18T20:05:45.649Z,62.5
2023-10-18T20:11:38.874Z,63.6
2023-10-18T20:16:38.865Z,65.3
2023-10-18T20:21:38.909Z,66.6
2023-10-18T20:26:45.544Z,69.6
2023-10-18T20:31:45.550Z,70.4
2023-10-18T20:37:38.814Z,72.6
2023-10-18T20:42:45.439Z,75.9
2023-10-18T20:48:38.726Z,76.1
2023-10-18T20:53:38.924Z,77.3
2023-10-18T20:58:45.316Z,78.8
2023-10-18T21:03:45.481Z,80.6
2023-10-18T21:14:38.836Z,81.9
2023-10-18T21:19:45.699Z,81.8
2023-10-18T21:25:38.812Z,81.7
2023-10-18T21:30:38.827Z,83.7
2023-10-18T21:35:45.232Z,84
2023-10-18T21:40:45.327Z,83.8
2023-10-18T21:46:38.906Z,84.5
2023-10-18T21:56:45.203Z,86.3
2023-10-18T22:01:45.547Z,87.3
2023-10-18T22:07:38.657Z,87.9
2023-10-18T22:12:38.858Z,88.3
2023-10-18T22:17:45.470Z,88.6
2023-10-18T22:22:45.536Z,89.2
2023-10-18T22:28:38.612Z,89.7
2023-10-18T22:33:38.879Z,88.8
2023-10-18T22:38:38.988Z,88.6
2023-10-18T22:43:45.470Z,89.2
2023-10-18T22:48:45.461Z,88.8
2023-10-18T22:54:38.676Z,87.7
2023-10-18T22:59:38.705Z,88.2
2023-10-18T23:04:38.764Z,88.3
2023-10-18T23:09:38.742Z,88.1
2023-10-18T23:14:45.266Z,87.4
2023-10-18T23:20:38.716Z,87
2023-10-18T23:25:45.953Z,87.6
2023-10-18T23:31:38.687Z,87.5
2023-10-18T23:36:38.672Z,87.6
2023-10-18T23:41:38.752Z,87.8
2023-10-18T23:52:39.701Z,88.9
